createdAt,value
2019-05-07T00:00:59.053Z,8.10
2019-05-07T00:03:33.773Z,7.80
2019-05-07T00:06:08.510Z,7.67
2019-05-07T00:08:45.013Z,8.15
2019-05-07T00:11:19.540Z,8.30
2019-05-07T00:13:54.192Z,8.00
2019-05-07T00:16:28.930Z,8.18
2019-05-07T00:19:03.643Z,8.18
2019-05-07T00:21:38.402Z,8.13
2019-05-07T00:24:13.911Z,8.08
2019-05-07T00:26:48.648Z,8.38
2019-05-07T00:29:23.378Z,8.30
2019-05-07T00:31:58.047Z,8.30
2019-05-07T00:34:34.471Z,8.40
2019-05-07T00:37:13.518Z,9.25
2019-05-07T00:39:49.937Z,8.78
2019-05-07T00:42:38.730Z,9.30
2019-05-07T00:45:20.245Z,9.25
2019-05-07T00:47:52.093Z,8.90
2019-05-07T00:50:28.632Z,9.30
2019-05-07T00:53:03.423Z,8.60
2019-05-07T00:55:38.187Z,8.58
2019-05-07T00:58:13.344Z,7.72
2019-05-07T01:00:48.254Z,7.62
2019-05-07T01:03:22.827Z,6.78
2019-05-07T01:05:57.506Z,6.50
2019-05-07T01:08:32.239Z,6.28
2019-05-07T01:11:06.902Z,6.35
2019-05-07T01:13:43.160Z,6.62
2019-05-07T01:16:18.158Z,6.70
2019-05-07T01:18:53.790Z,6.30
2019-05-07T01:21:28.649Z,6.40
2019-05-07T01:24:03.498Z,5.97
2019-05-07T01:26:38.369Z,5.50
2019-05-07T01:29:13.070Z,6.05
2019-05-07T01:31:49.465Z,5.67
2019-05-07T01:34:34.668Z,6.00
2019-05-07T01:37:09.371Z,6.95
2019-05-07T01:39:43.985Z,5.75
2019-05-07T01:42:18.763Z,5.40
2019-05-07T01:44:53.504Z,6.53
2019-05-07T01:47:28.232Z,5.53
2019-05-07T01:50:03.269Z,5.78
2019-05-07T01:52:37.928Z,5.35
2019-05-07T01:55:13.027Z,5.25
2019-05-07T01:57:49.667Z,5.35
2019-05-07T02:00:24.416Z,6.12
2019-05-07T02:03:04.025Z,5.95
2019-05-07T02:05:42.305Z,6.33
2019-05-07T02:08:34.554Z,6.12
2019-05-07T02:11:12.750Z,5.42
2019-05-07T02:13:47.365Z,6.33
2019-05-07T02:16:22.197Z,5.87
2019-05-07T02:18:56.979Z,5.28
2019-05-07T02:21:32.934Z,5.42
2019-05-07T02:24:07.938Z,5.60
2019-05-07T02:26:42.839Z,5.17
2019-05-07T02:29:17.726Z,5.62
2019-05-07T02:31:53.119Z,5.25
2019-05-07T02:34:27.902Z,5.47
2019-05-07T02:37:04.315Z,5.10
2019-05-07T02:39:44.216Z,5.65
2019-05-07T02:42:19.333Z,5.80
2019-05-07T02:45:14.079Z,4.92
2019-05-07T02:47:48.795Z,5.00
2019-05-07T02:50:25.052Z,5.40
2019-05-07T02:53:04.228Z,5.53
2019-05-07T02:55:45.236Z,4.62
2019-05-07T02:58:23.663Z,5.25
2019-05-07T03:00:56.333Z,4.80
2019-05-07T03:03:33.508Z,5.42
2019-05-07T03:06:07.482Z,4.47
2019-05-07T03:08:44.020Z,4.62
2019-05-07T03:11:18.632Z,5.20
2019-05-07T03:13:55.041Z,5.05
2019-05-07T03:16:39.549Z,5.00
2019-05-07T03:19:06.190Z,4.65
2019-05-07T03:21:54.005Z,4.62
2019-05-07T03:24:35.857Z,5.15
2019-05-07T03:27:13.803Z,5.50
2019-05-07T03:29:48.817Z,4.92
2019-05-07T03:32:37.918Z,5.25
2019-05-07T03:35:18.509Z,4.65
2019-05-07T03:37:54.647Z,5.45
2019-05-07T03:40:39.372Z,5.60
2019-05-07T03:43:14.505Z,4.95
2019-05-07T03:46:07.628Z,5.15
2019-05-07T03:48:44.293Z,5.15
2019-05-07T03:51:18.999Z,5.10
2019-05-07T03:53:54.135Z,4.92
2019-05-07T03:56:28.750Z,5.35
2019-05-07T03:59:03.673Z,5.35
2019-05-07T04:01:38.401Z,5.80
2019-05-07T04:04:13.280Z,5.05
2019-05-07T04:06:48.035Z,5.97
2019-05-07T04:09:24.169Z,5.25
2019-05-07T04:11:58.891Z,5.25
2019-05-07T04:14:34.462Z,4.53
2019-05-07T04:17:17.559Z,5.03
2019-05-07T04:19:45.870Z,4.78
2019-05-07T04:22:23.855Z,4.45
2019-05-07T04:25:04.849Z,4.72
2019-05-07T04:27:52.592Z,4.53
2019-05-07T04:30:27.451Z,4.08
2019-05-07T04:33:03.755Z,4.03
2019-05-07T04:35:43.041Z,4.60
2019-05-07T04:38:16.346Z,4.20
2019-05-07T04:40:53.516Z,4.60
2019-05-07T04:43:27.420Z,4.62
2019-05-07T04:46:03.127Z,4.72
2019-05-07T04:48:38.257Z,5.10
2019-05-07T04:51:14.686Z,4.90
2019-05-07T04:53:49.365Z,5.20
2019-05-07T04:56:24.124Z,5.72
2019-05-07T04:58:58.787Z,4.83
2019-05-07T05:01:36.610Z,4.70
2019-05-07T05:04:25.678Z,5.08
2019-05-07T05:06:47.632Z,5.72
2019-05-07T05:09:23.332Z,4.87
2019-05-07T05:11:58.263Z,4.70
2019-05-07T05:14:33.762Z,4.55
2019-05-07T05:17:08.859Z,5.05
2019-05-07T05:19:43.977Z,5.00
2019-05-07T05:22:31.754Z,5.30
2019-05-07T05:25:08.264Z,5.08
2019-05-07T05:27:43.119Z,5.00
2019-05-07T05:30:24.021Z,5.80
2019-05-07T05:35:34.431Z,4.40
2019-05-07T05:38:09.163Z,5.12
2019-05-07T05:40:43.866Z,5.10
2019-05-07T05:43:26.243Z,5.15
2019-05-07T05:46:02.865Z,5.37
2019-05-07T05:48:37.583Z,4.90
2019-05-07T05:51:14.612Z,4.40
2019-05-07T05:54:02.679Z,5.03
2019-05-07T05:56:42.755Z,4.60
2019-05-07T05:59:27.227Z,4.80
2019-05-07T06:02:09.325Z,4.55
2019-05-07T06:04:48.495Z,4.30
2019-05-07T06:07:24.785Z,4.45
2019-05-07T06:10:12.714Z,4.20
2019-05-07T06:12:48.382Z,4.17
2019-05-07T06:15:27.583Z,4.75
2019-05-07T06:18:17.669Z,4.45
2019-05-07T06:20:42.794Z,4.70
2019-05-07T06:23:32.949Z,4.37
2019-05-07T06:26:07.803Z,4.33
2019-05-07T06:28:42.676Z,3.83
2019-05-07T06:31:17.400Z,4.20
2019-05-07T06:33:52.398Z,4.05
2019-05-07T06:36:27.742Z,4.08
2019-05-07T06:39:07.060Z,4.75
2019-05-07T06:42:01.942Z,4.95
2019-05-07T06:44:36.446Z,4.80
2019-05-07T06:47:13.076Z,4.60
2019-05-07T06:49:47.569Z,4.53
2019-05-07T06:52:22.513Z,4.20
2019-05-07T06:54:57.179Z,3.90
2019-05-07T06:57:33.194Z,3.72
2019-05-07T07:00:25.885Z,3.72
2019-05-07T07:03:02.335Z,3.77
2019-05-07T07:05:38.710Z,3.62
2019-05-07T07:08:27.282Z,4.10
2019-05-07T07:11:16.026Z,3.80
2019-05-07T07:13:51.993Z,3.80
2019-05-07T07:16:26.869Z,3.67
2019-05-07T07:19:03.423Z,3.50
2019-05-07T07:21:38.251Z,3.95
2019-05-07T07:24:12.975Z,3.75
2019-05-07T07:26:47.735Z,3.47
2019-05-07T07:29:24.095Z,3.50
2019-05-07T07:32:12.748Z,3.62
2019-05-07T07:34:49.225Z,3.92
2019-05-07T07:37:32.005Z,4.17
2019-05-07T07:40:17.500Z,3.70
2019-05-07T07:42:52.200Z,3.75
2019-05-07T07:45:26.840Z,3.58
2019-05-07T07:48:02.282Z,3.37
2019-05-07T07:50:37.274Z,3.77
2019-05-07T07:53:13.002Z,3.05
2019-05-07T07:56:06.413Z,3.55
2019-05-07T07:58:48.444Z,3.50
2019-05-07T08:01:24.804Z,3.20
2019-05-07T08:04:02.858Z,3.77
2019-05-07T08:06:38.995Z,3.98
2019-05-07T08:09:13.739Z,3.95
2019-05-07T08:11:48.538Z,3.67
2019-05-07T08:14:23.299Z,3.45
2019-05-07T08:16:58.572Z,3.60
2019-05-07T08:19:33.312Z,3.40
2019-05-07T08:22:08.111Z,3.40
2019-05-07T08:24:42.910Z,3.47
2019-05-07T08:27:17.740Z,3.37
2019-05-07T08:29:52.606Z,3.12
2019-05-07T08:32:32.678Z,3.15
2019-05-07T08:35:14.292Z,3.23
2019-05-07T08:37:49.204Z,3.20
2019-05-07T08:40:23.969Z,3.25
2019-05-07T08:42:59.315Z,2.92
2019-05-07T08:45:52.631Z,3.55
2019-05-07T08:48:32.058Z,3.27
2019-05-07T08:51:06.760Z,3.33
2019-05-07T08:53:42.291Z,3.55
2019-05-07T08:56:16.963Z,3.08
2019-05-07T08:58:52.635Z,3.58
2019-05-07T09:01:27.662Z,3.30
2019-05-07T09:04:03.379Z,3.05
2019-05-07T09:06:38.121Z,3.40
2019-05-07T09:09:13.757Z,3.02
2019-05-07T09:11:48.478Z,3.42
2019-05-07T09:14:26.121Z,3.47
2019-05-07T09:17:02.173Z,3.85
2019-05-07T09:19:47.230Z,3.22
2019-05-07T09:22:12.836Z,3.60
2019-05-07T09:24:47.683Z,3.10
2019-05-07T09:27:36.658Z,3.15
2019-05-07T09:30:21.884Z,3.22
2019-05-07T09:33:03.680Z,3.58
2019-05-07T09:35:42.268Z,3.33
2019-05-07T09:38:16.554Z,3.50
2019-05-07T09:40:52.489Z,3.30
2019-05-07T09:43:28.714Z,3.17
2019-05-07T09:46:03.503Z,3.27
2019-05-07T09:48:38.256Z,3.15
2019-05-07T09:51:15.498Z,3.20
2019-05-07T09:53:52.000Z,3.02
2019-05-07T09:56:26.583Z,3.25
2019-05-07T09:59:02.218Z,3.20
2019-05-07T10:01:37.028Z,3.00
2019-05-07T10:04:11.753Z,2.77
2019-05-07T10:06:46.513Z,3.47
2019-05-07T10:09:22.314Z,3.45
2019-05-07T10:12:08.002Z,3.00
2019-05-07T10:14:45.496Z,2.70
2019-05-07T10:17:22.384Z,3.35
2019-05-07T10:19:57.138Z,3.45
2019-05-07T10:22:32.193Z,3.00
2019-05-07T10:25:07.147Z,3.25
2019-05-07T10:27:43.998Z,2.80
2019-05-07T10:30:18.922Z,3.62
2019-05-07T10:32:53.811Z,3.27
2019-05-07T10:35:31.137Z,3.33
2019-05-07T10:38:05.078Z,2.83
2019-05-07T10:40:39.822Z,3.15
2019-05-07T10:43:17.659Z,3.50
2019-05-07T10:46:09.037Z,3.20
2019-05-07T10:48:48.629Z,2.92
2019-05-07T10:51:23.560Z,2.62
2019-05-07T10:53:58.384Z,3.22
2019-05-07T10:56:33.147Z,2.58
2019-05-07T10:59:08.036Z,3.20
2019-05-07T11:01:44.426Z,2.70
2019-05-07T11:04:19.284Z,2.83
2019-05-07T11:06:54.033Z,2.75
2019-05-07T11:09:28.823Z,2.85
2019-05-07T11:12:03.568Z,2.67
2019-05-07T11:14:38.363Z,3.12
2019-05-07T11:17:14.763Z,3.00
2019-05-07T11:19:49.550Z,2.98
2019-05-07T11:22:24.307Z,2.98
2019-05-07T11:24:59.119Z,2.92
2019-05-07T11:27:33.929Z,3.50
2019-05-07T11:30:11.787Z,4.20
2019-05-07T11:32:45.878Z,3.67
2019-05-07T11:35:22.751Z,3.83
2019-05-07T11:37:56.977Z,3.62
2019-05-07T11:40:34.726Z,3.50
2019-05-07T11:43:09.697Z,3.27
2019-05-07T11:45:49.260Z,3.55
2019-05-07T11:48:25.785Z,3.25
2019-05-07T11:51:15.249Z,3.00
2019-05-07T11:54:08.361Z,2.87
2019-05-07T11:56:43.076Z,2.83
2019-05-07T11:59:17.756Z,2.70
2019-05-07T12:01:54.147Z,3.20
2019-05-07T12:04:28.838Z,3.72
2019-05-07T12:07:03.549Z,3.35
2019-05-07T12:09:39.185Z,3.87
2019-05-07T12:12:13.915Z,3.40
2019-05-07T12:14:48.593Z,3.95
2019-05-07T12:17:23.248Z,3.58
2019-05-07T12:19:57.927Z,3.45
2019-05-07T12:22:52.181Z,3.08
2019-05-07T12:25:27.137Z,3.40
2019-05-07T12:28:02.476Z,3.08
2019-05-07T12:30:42.796Z,3.08
2019-05-07T12:33:19.367Z,2.20
2019-05-07T12:35:54.126Z,2.60
2019-05-07T12:38:30.459Z,3.02
2019-05-07T12:41:06.968Z,3.02
2019-05-07T12:43:44.074Z,3.12
2019-05-07T12:46:18.904Z,3.22
2019-05-07T12:48:53.714Z,3.00
2019-05-07T12:51:34.574Z,2.90
2019-05-07T12:54:22.931Z,3.00
2019-05-07T12:56:58.052Z,2.58
2019-05-07T12:59:32.854Z,2.50
2019-05-07T13:02:21.367Z,2.83
2019-05-07T13:04:45.592Z,2.85
2019-05-07T13:07:25.042Z,2.77
2019-05-07T13:09:59.908Z,2.90
2019-05-07T13:12:34.597Z,2.70
2019-05-07T13:15:21.941Z,2.62
2019-05-07T13:17:45.751Z,2.60
2019-05-07T13:20:22.509Z,3.10
2019-05-07T13:22:57.011Z,2.95
2019-05-07T13:25:32.458Z,2.98
2019-05-07T13:28:07.191Z,2.67
2019-05-07T13:30:43.884Z,3.00
2019-05-07T13:33:18.818Z,2.60
2019-05-07T13:35:53.607Z,3.40
2019-05-07T13:38:39.258Z,2.80
2019-05-07T13:41:24.742Z,2.70
2019-05-07T13:44:04.178Z,2.98
2019-05-07T13:46:42.077Z,3.50
2019-05-07T13:49:17.525Z,3.02
2019-05-07T13:52:03.148Z,2.95
2019-05-07T13:54:28.799Z,3.25
2019-05-07T13:57:03.586Z,2.83
2019-05-07T13:59:38.341Z,2.65
2019-05-07T14:02:15.646Z,2.80
2019-05-07T14:04:52.547Z,3.10
2019-05-07T14:07:28.480Z,2.70
2019-05-07T14:10:04.325Z,2.70
2019-05-07T14:12:39.110Z,2.70
2019-05-07T14:15:13.964Z,2.83
2019-05-07T14:17:48.763Z,2.83
2019-05-07T14:20:23.630Z,2.98
2019-05-07T14:22:58.414Z,2.85
2019-05-07T14:25:33.099Z,2.65
2019-05-07T14:28:07.895Z,2.72
2019-05-07T14:30:42.500Z,2.52
2019-05-07T14:33:18.939Z,3.05
2019-05-07T14:35:55.342Z,2.62
2019-05-07T14:38:32.119Z,2.50
2019-05-07T14:41:06.913Z,2.98
2019-05-07T14:43:46.065Z,2.50
2019-05-07T14:46:20.784Z,3.05
2019-05-07T14:48:55.566Z,3.05
2019-05-07T14:51:32.392Z,2.80
2019-05-07T14:54:06.731Z,2.58
2019-05-07T14:56:42.846Z,2.58
2019-05-07T14:59:17.785Z,2.20
2019-05-07T15:01:52.467Z,2.37
2019-05-07T15:04:30.430Z,2.67
2019-05-07T15:07:05.151Z,2.83
2019-05-07T15:09:42.426Z,2.67
2019-05-07T15:12:16.847Z,3.00
2019-05-07T15:14:52.797Z,3.35
2019-05-07T15:17:38.690Z,2.70
2019-05-07T15:20:13.547Z,2.60
2019-05-07T15:22:52.668Z,3.02
2019-05-07T15:25:29.555Z,3.00
2019-05-07T15:28:04.031Z,2.67
2019-05-07T15:30:52.364Z,2.67
2019-05-07T15:33:32.188Z,3.00
2019-05-07T15:36:06.713Z,2.55
2019-05-07T15:38:42.930Z,2.90
2019-05-07T15:41:17.904Z,2.60
2019-05-07T15:43:52.589Z,2.70
2019-05-07T15:46:27.379Z,2.10
2019-05-07T15:49:02.136Z,2.40
2019-05-07T15:51:36.853Z,2.72
2019-05-07T15:54:12.806Z,3.00
2019-05-07T15:56:47.802Z,2.40
2019-05-07T15:59:22.838Z,2.80
2019-05-07T16:01:59.206Z,2.45
2019-05-07T16:04:34.007Z,2.72
2019-05-07T16:07:13.128Z,2.92
2019-05-07T16:09:46.916Z,2.33
2019-05-07T16:12:22.682Z,2.52
2019-05-07T16:14:59.052Z,3.58
2019-05-07T16:17:35.385Z,3.55
2019-05-07T16:20:12.079Z,4.50
2019-05-07T16:23:05.377Z,5.15
2019-05-07T16:25:33.907Z,3.72
2019-05-07T16:28:08.629Z,2.90
2019-05-07T16:30:43.382Z,2.70
2019-05-07T16:33:18.115Z,3.05
2019-05-07T16:35:52.871Z,2.47
2019-05-07T16:38:27.651Z,2.52
2019-05-07T16:41:02.406Z,2.20
2019-05-07T16:43:37.053Z,2.35
2019-05-07T16:46:11.958Z,2.05
2019-05-07T16:48:46.816Z,2.45
2019-05-07T16:51:22.320Z,2.20
2019-05-07T16:53:57.222Z,2.55
2019-05-07T16:56:33.337Z,2.15
2019-05-07T16:59:09.003Z,2.87
2019-05-07T17:01:43.838Z,2.75
2019-05-07T17:04:18.795Z,2.80
2019-05-07T17:06:55.223Z,2.40
2019-05-07T17:09:32.364Z,3.08
2019-05-07T17:12:09.692Z,3.10
2019-05-07T17:14:44.410Z,3.30
2019-05-07T17:17:22.390Z,4.10
2019-05-07T17:19:57.287Z,3.87
2019-05-07T17:22:32.249Z,3.55
2019-05-07T17:25:27.542Z,4.03
2019-05-07T17:28:02.880Z,3.62
2019-05-07T17:30:38.474Z,4.25
2019-05-07T17:33:13.260Z,8.98
2019-05-07T17:35:48.631Z,7.83
2019-05-07T17:38:23.330Z,7.05
2019-05-07T17:41:09.922Z,6.55
2019-05-07T17:43:34.536Z,5.55
2019-05-07T17:46:09.255Z,6.20
2019-05-07T17:48:44.003Z,6.37
2019-05-07T17:51:22.915Z,6.20
2019-05-07T17:54:00.117Z,6.33
2019-05-07T17:56:33.958Z,8.78
2019-05-07T17:59:12.175Z,6.40
2019-05-07T18:01:52.870Z,8.18
2019-05-07T18:04:27.697Z,7.10
2019-05-07T18:07:03.055Z,7.10
2019-05-07T18:09:37.894Z,5.45
2019-05-07T18:12:12.693Z,5.17
2019-05-07T18:14:48.918Z,5.20
2019-05-07T18:17:35.760Z,5.53
2019-05-07T18:20:12.721Z,5.00
2019-05-07T18:22:47.050Z,5.35
2019-05-07T18:25:21.828Z,5.97
2019-05-07T18:27:56.580Z,6.50
2019-05-07T18:30:32.672Z,7.17
2019-05-07T18:33:14.935Z,7.65
2019-05-07T18:35:52.528Z,7.67
2019-05-07T18:38:27.567Z,7.90
2019-05-07T18:41:02.806Z,7.70
2019-05-07T18:43:37.717Z,6.42
2019-05-07T18:46:14.006Z,6.72
2019-05-07T18:48:48.791Z,6.58
2019-05-07T18:51:23.398Z,6.53
2019-05-07T18:53:58.117Z,6.80
2019-05-07T18:56:32.879Z,6.87
2019-05-07T18:59:07.597Z,6.40
2019-05-07T19:01:43.733Z,6.87
2019-05-07T19:04:21.929Z,6.92
2019-05-07T19:06:57.515Z,6.50
2019-05-07T19:09:32.308Z,6.55
2019-05-07T19:12:08.837Z,6.65
2019-05-07T19:14:45.194Z,6.42
2019-05-07T19:17:39.288Z,5.75
2019-05-07T19:20:14.078Z,6.20
2019-05-07T19:22:51.859Z,6.40
2019-05-07T19:25:26.692Z,6.83
2019-05-07T19:28:01.993Z,6.17
2019-05-07T19:30:36.883Z,6.70
2019-05-07T19:33:12.291Z,5.85
2019-05-07T19:35:47.317Z,6.10
2019-05-07T19:38:22.065Z,6.15
2019-05-07T19:40:56.845Z,6.35
2019-05-07T19:43:32.567Z,6.62
2019-05-07T19:46:08.441Z,6.05
2019-05-07T19:48:44.081Z,6.75
2019-05-07T19:51:18.955Z,6.30
2019-05-07T19:53:53.639Z,6.30
2019-05-07T19:56:28.363Z,6.92
2019-05-07T19:59:03.104Z,6.45
2019-05-07T20:01:39.594Z,7.20
2019-05-07T20:04:18.569Z,6.05
2019-05-07T20:06:53.225Z,7.33
2019-05-07T20:09:29.594Z,7.08
2019-05-07T20:12:04.649Z,6.20
2019-05-07T20:14:42.270Z,6.03
2019-05-07T20:17:17.608Z,6.83
2019-05-07T20:19:52.763Z,6.30
2019-05-07T20:22:27.931Z,6.10
2019-05-07T20:25:15.759Z,6.45
2019-05-07T20:27:39.014Z,6.65
2019-05-07T20:30:13.862Z,6.47
2019-05-07T20:32:48.584Z,6.35
2019-05-07T20:35:23.258Z,6.08
2019-05-07T20:37:58.034Z,7.47
2019-05-07T20:40:32.729Z,6.65
2019-05-07T20:43:07.498Z,6.70
2019-05-07T20:45:42.649Z,6.67
2019-05-07T20:48:18.129Z,7.08
2019-05-07T20:50:52.812Z,6.92
2019-05-07T20:53:45.523Z,7.28
2019-05-07T20:56:37.165Z,7.65
2019-05-07T20:59:12.574Z,7.33
2019-05-07T21:01:47.334Z,7.10
2019-05-07T21:04:22.402Z,11.00
2019-05-07T21:06:58.629Z,9.40
2019-05-07T21:09:34.012Z,8.90
2019-05-07T21:12:08.843Z,8.68
2019-05-07T21:14:43.646Z,8.80
2019-05-07T21:17:18.390Z,7.90
2019-05-07T21:19:53.036Z,8.15
2019-05-07T21:22:27.783Z,8.30
2019-05-07T21:25:02.786Z,7.58
2019-05-07T21:27:37.589Z,8.20
2019-05-07T21:30:13.089Z,7.62
2019-05-07T21:32:47.781Z,8.13
2019-05-07T21:35:22.570Z,7.50
2019-05-07T21:37:57.250Z,8.00
2019-05-07T21:40:32.125Z,7.90
2019-05-07T21:43:06.927Z,8.75
2019-05-07T21:45:42.309Z,8.05
2019-05-07T21:48:17.162Z,8.00
2019-05-07T21:50:52.151Z,7.28
2019-05-07T21:53:34.439Z,6.97
2019-05-07T21:56:13.771Z,7.80
2019-05-07T21:58:53.911Z,9.18
2019-05-07T22:01:28.233Z,8.80
2019-05-07T22:04:02.983Z,9.68
2019-05-07T22:06:37.713Z,10.38
2019-05-07T22:09:13.234Z,10.50
2019-05-07T22:11:48.027Z,9.75
2019-05-07T22:14:22.719Z,9.33
2019-05-07T22:16:57.358Z,8.93
2019-05-07T22:19:33.876Z,8.85
2019-05-07T22:22:08.800Z,9.15
2019-05-07T22:24:43.556Z,8.93
2019-05-07T22:27:18.192Z,8.05
2019-05-07T22:29:53.022Z,9.03
2019-05-07T22:32:43.845Z,13.72
2019-05-07T22:35:22.671Z,13.45
2019-05-07T22:37:57.626Z,10.93
2019-05-07T22:40:32.286Z,10.20
2019-05-07T22:43:06.971Z,8.20
2019-05-07T22:45:42.830Z,8.35
2019-05-07T22:48:17.548Z,8.25
2019-05-07T22:50:52.296Z,7.95
2019-05-07T22:53:26.930Z,8.08
2019-05-07T22:56:03.143Z,7.70
2019-05-07T22:58:41.863Z,7.85
2019-05-07T23:01:17.535Z,7.78
2019-05-07T23:03:54.025Z,8.10
2019-05-07T23:06:28.476Z,7.58
2019-05-07T23:09:03.177Z,8.20
2019-05-07T23:11:37.868Z,7.37
2019-05-07T23:14:13.214Z,7.30
2019-05-07T23:16:47.894Z,7.37
2019-05-07T23:19:22.541Z,7.85
2019-05-07T23:21:57.154Z,7.95
2019-05-07T23:24:31.966Z,7.00
2019-05-07T23:27:06.637Z,7.08
2019-05-07T23:29:41.791Z,7.03
2019-05-07T23:32:17.583Z,7.05
2019-05-07T23:34:52.846Z,6.58
2019-05-07T23:37:27.565Z,6.60
2019-05-07T23:40:03.929Z,7.17
2019-05-07T23:42:42.295Z,7.37
2019-05-07T23:45:16.579Z,7.17
2019-05-07T23:47:51.932Z,6.42
2019-05-07T23:50:26.815Z,6.60
2019-05-07T23:53:02.256Z,7.20
2019-05-07T23:55:37.209Z,7.03
2019-05-07T23:58:14.055Z,5.97
